createdAt,value
2022-12-09T00:01:32.911Z,99.90
2022-12-09T00:04:02.911Z,99.90
2022-12-09T00:06:33.476Z,99.90
2022-12-09T00:09:01.036Z,99.90
2022-12-09T00:11:31.578Z,99.90
2022-12-09T00:14:01.188Z,99.90
2022-12-09T00:16:28.847Z,99.90
2022-12-09T00:18:57.701Z,99.90
2022-12-09T00:21:31.441Z,99.90
2022-12-09T00:24:01.520Z,99.90
2022-12-09T00:26:32.179Z,99.90
2022-12-09T00:28:59.740Z,99.90
2022-12-09T00:31:30.423Z,99.90
2022-12-09T00:34:02.021Z,99.90
2022-12-09T00:36:30.189Z,99.90
2022-12-09T00:39:00.091Z,99.90
2022-12-09T00:41:28.364Z,99.90
2022-12-09T00:43:55.824Z,99.90
2022-12-09T00:46:23.453Z,99.90
2022-12-09T00:48:53.741Z,99.90
2022-12-09T00:51:25.222Z,99.90
2022-12-09T00:53:53.247Z,99.90
2022-12-09T00:56:25.968Z,99.90
2022-12-09T00:58:53.304Z,99.90
2022-12-09T01:01:23.924Z,99.90
2022-12-09T01:03:51.622Z,99.90
2022-12-09T01:06:22.162Z,99.90
2022-12-09T01:08:49.538Z,99.90
2022-12-09T01:11:28.868Z,99.90
2022-12-09T01:13:59.666Z,99.90
2022-12-09T01:16:32.210Z,99.90
2022-12-09T01:19:01.976Z,99.90
2022-12-09T01:21:30.458Z,99.90
2022-12-09T01:24:00.283Z,99.90
2022-12-09T01:26:28.185Z,99.90
2022-12-09T01:28:58.253Z,99.90
2022-12-09T01:31:28.206Z,99.90
2022-12-09T01:33:56.401Z,99.90
2022-12-09T01:36:29.091Z,99.90
2022-12-09T01:39:00.691Z,99.90
2022-12-09T01:41:31.397Z,99.90
2022-12-09T01:44:18.169Z,99.90
2022-12-09T01:46:46.417Z,99.90
2022-12-09T01:49:31.395Z,99.90
2022-12-09T01:52:10.499Z,99.90
2022-12-09T01:54:43.094Z,99.90
2022-12-09T01:57:10.928Z,99.90
2022-12-09T01:59:39.479Z,99.90
2022-12-09T02:02:14.468Z,99.90
2022-12-09T02:04:42.715Z,99.90
2022-12-09T02:07:11.164Z,99.90
2022-12-09T02:09:40.049Z,99.90
2022-12-09T02:12:24.087Z,99.90
2022-12-09T02:15:04.688Z,99.90
2022-12-09T02:17:39.894Z,99.90
2022-12-09T02:20:29.984Z,99.90
2022-12-09T02:23:11.395Z,99.90
2022-12-09T02:25:49.624Z,99.90
2022-12-09T02:28:22.957Z,99.90
2022-12-09T02:31:25.693Z,99.90
2022-12-09T02:34:17.416Z,99.90
2022-12-09T02:37:00.458Z,99.90
2022-12-09T02:39:42.293Z,99.90
2022-12-09T02:42:17.316Z,99.90
2022-12-09T02:44:50.081Z,99.90
2022-12-09T02:47:21.671Z,99.90
2022-12-09T02:49:52.396Z,99.90
2022-12-09T02:52:21.744Z,99.90
2022-12-09T02:54:52.539Z,99.90
2022-12-09T02:57:24.766Z,99.90
2022-12-09T02:59:53.078Z,99.90
2022-12-09T03:02:20.404Z,99.90
2022-12-09T03:05:04.693Z,99.90
2022-12-09T03:07:36.502Z,99.90
2022-12-09T03:10:16.121Z,99.90
2022-12-09T03:12:50.850Z,99.90
2022-12-09T03:15:23.127Z,99.90
2022-12-09T03:17:52.940Z,99.90
2022-12-09T03:20:29.795Z,99.90
2022-12-09T03:23:00.926Z,99.90
2022-12-09T03:25:38.419Z,99.90
2022-12-09T03:28:14.192Z,99.90
2022-12-09T03:30:44.939Z,99.90
2022-12-09T03:33:15.803Z,99.90
2022-12-09T03:35:49.603Z,99.90
2022-12-09T03:38:21.073Z,99.90
2022-12-09T03:40:54.551Z,99.90
2022-12-09T03:43:37.485Z,99.90
2022-12-09T03:46:05.584Z,99.90
2022-12-09T03:48:35.839Z,99.90
2022-12-09T03:51:14.382Z,99.90
2022-12-09T03:53:43.700Z,99.90
2022-12-09T03:56:27.837Z,99.90
2022-12-09T03:58:57.906Z,99.90
2022-12-09T04:01:27.130Z,99.90
2022-12-09T04:03:56.444Z,99.90
2022-12-09T04:06:24.728Z,99.90
2022-12-09T04:08:52.015Z,99.90
2022-12-09T04:11:19.662Z,99.90
2022-12-09T04:13:46.873Z,99.90
2022-12-09T04:16:14.241Z,99.90
2022-12-09T04:18:42.590Z,99.90
2022-12-09T04:21:13.945Z,99.90
2022-12-09T04:23:43.468Z,99.90
2022-12-09T04:26:17.128Z,99.90
2022-12-09T04:28:44.223Z,99.90
2022-12-09T04:31:13.716Z,99.90
2022-12-09T04:33:41.924Z,99.90
2022-12-09T04:36:12.568Z,99.90
2022-12-09T04:38:40.861Z,99.90
2022-12-09T04:41:11.658Z,99.90
2022-12-09T04:43:39.521Z,99.90
2022-12-09T04:46:14.851Z,99.90
2022-12-09T04:48:45.079Z,99.90
2022-12-09T04:51:16.415Z,99.90
2022-12-09T04:53:44.469Z,99.90
2022-12-09T04:56:15.874Z,99.90
2022-12-09T04:58:43.584Z,99.90
2022-12-09T05:01:15.670Z,99.90
2022-12-09T05:03:47.972Z,99.90
2022-12-09T05:06:16.314Z,99.90
2022-12-09T05:08:46.187Z,99.90
2022-12-09T05:11:18.168Z,99.90
2022-12-09T05:13:46.045Z,99.90
2022-12-09T05:16:17.286Z,99.90
2022-12-09T05:18:48.899Z,99.90
2022-12-09T05:21:19.491Z,99.90
2022-12-09T05:23:47.312Z,99.90
2022-12-09T05:26:19.992Z,99.90
2022-12-09T05:28:47.527Z,99.90
2022-12-09T05:31:17.962Z,99.90
2022-12-09T05:33:48.796Z,99.90
2022-12-09T05:36:19.058Z,99.90
2022-12-09T05:38:46.444Z,99.90
2022-12-09T05:41:14.161Z,99.90
2022-12-09T05:43:43.992Z,99.90
2022-12-09T05:46:14.864Z,99.90
2022-12-09T05:48:42.557Z,99.90
2022-12-09T05:51:18.688Z,99.90
2022-12-09T05:53:46.375Z,99.90
2022-12-09T05:56:18.860Z,99.90
2022-12-09T05:58:49.294Z,99.90
2022-12-09T06:01:17.344Z,99.90
2022-12-09T06:03:48.174Z,99.90
2022-12-09T06:06:22.063Z,99.90
2022-12-09T06:08:50.174Z,99.90
2022-12-09T06:11:21.156Z,99.90
2022-12-09T06:13:50.519Z,99.90
2022-12-09T06:16:20.926Z,99.90
2022-12-09T06:18:49.426Z,99.90
2022-12-09T06:21:20.869Z,99.90
2022-12-09T06:23:49.926Z,99.90
2022-12-09T06:26:20.903Z,99.90
2022-12-09T06:28:48.809Z,99.90
2022-12-09T06:31:16.835Z,99.90
2022-12-09T06:33:55.933Z,99.90
2022-12-09T06:36:26.196Z,99.90
2022-12-09T06:38:54.156Z,99.90
2022-12-09T06:41:21.869Z,99.90
2022-12-09T06:43:49.455Z,99.90
2022-12-09T06:46:21.396Z,99.90
2022-12-09T06:48:51.192Z,99.90
2022-12-09T06:51:19.843Z,99.90
2022-12-09T06:53:47.545Z,99.90
2022-12-09T06:56:18.493Z,99.90
2022-12-09T06:58:46.780Z,99.90
2022-12-09T07:01:18.132Z,99.90
2022-12-09T07:03:48.418Z,99.90
2022-12-09T07:06:36.279Z,99.90
2022-12-09T07:09:06.797Z,99.90
2022-12-09T07:11:37.810Z,99.90
2022-12-09T07:14:05.354Z,99.90
2022-12-09T07:16:33.023Z,99.90
2022-12-09T07:19:01.171Z,99.90
2022-12-09T07:21:31.565Z,99.90
2022-12-09T07:24:03.173Z,99.90
2022-12-09T07:26:33.132Z,99.90
2022-12-09T07:29:05.885Z,99.90
2022-12-09T07:31:34.566Z,99.90
2022-12-09T07:34:05.599Z,99.90
2022-12-09T07:36:37.272Z,99.90
2022-12-09T07:39:17.047Z,99.90
2022-12-09T07:41:45.408Z,99.90
2022-12-09T07:44:12.802Z,99.90
2022-12-09T07:46:40.899Z,99.90
2022-12-09T07:49:11.782Z,99.90
2022-12-09T07:51:40.155Z,99.90
2022-12-09T07:54:10.644Z,99.90
2022-12-09T07:56:38.523Z,99.90
2022-12-09T07:59:10.358Z,99.90
2022-12-09T08:01:38.564Z,97.00
2022-12-09T08:04:10.034Z,87.20
2022-12-09T08:06:40.672Z,76.00
2022-12-09T08:09:12.097Z,71.50
2022-12-09T08:11:42.706Z,71.20
2022-12-09T08:14:12.901Z,73.10
2022-12-09T08:16:42.583Z,74.60
2022-12-09T08:19:11.112Z,70.00
2022-12-09T08:21:41.797Z,63.80
2022-12-09T08:24:11.729Z,58.80
2022-12-09T08:26:39.977Z,54.50
2022-12-09T08:29:09.308Z,51.90
2022-12-09T08:31:42.362Z,49.20
2022-12-09T08:34:10.264Z,47.20
2022-12-09T08:36:41.043Z,46.50
2022-12-09T08:39:12.414Z,46.30
2022-12-09T08:41:40.720Z,45.20
2022-12-09T08:44:08.192Z,44.60
2022-12-09T08:46:38.084Z,44.30
2022-12-09T08:49:06.534Z,43.60
2022-12-09T08:51:37.357Z,42.80
2022-12-09T08:54:05.970Z,43.20
2022-12-09T08:56:34.361Z,43.40
2022-12-09T08:59:02.194Z,42.50
2022-12-09T09:01:31.562Z,42.70
2022-12-09T09:04:02.513Z,43.10
2022-12-09T09:06:30.434Z,43.10
2022-12-09T09:09:00.428Z,43.70
2022-12-09T09:11:28.762Z,43.60
2022-12-09T09:13:56.213Z,43.10
2022-12-09T09:16:26.464Z,42.90
2022-12-09T09:18:54.376Z,42.30
2022-12-09T09:21:24.254Z,41.90
2022-12-09T09:23:51.927Z,41.00
2022-12-09T09:26:22.854Z,41.20
2022-12-09T09:28:50.292Z,40.90
2022-12-09T09:31:21.154Z,40.20
2022-12-09T09:33:49.751Z,41.10
2022-12-09T09:36:23.040Z,41.70
2022-12-09T09:38:55.291Z,42.00
2022-12-09T09:41:32.574Z,43.10
2022-12-09T09:44:01.061Z,43.40
2022-12-09T09:46:44.089Z,43.60
2022-12-09T09:49:34.612Z,43.60
2022-12-09T09:52:11.537Z,43.40
2022-12-09T09:54:38.864Z,42.40
2022-12-09T09:57:24.180Z,41.20
2022-12-09T10:00:07.037Z,40.00
2022-12-09T10:03:04.059Z,39.30
2022-12-09T10:05:34.736Z,38.90
2022-12-09T10:08:38.897Z,39.10
2022-12-09T10:11:27.206Z,38.70
2022-12-09T10:14:11.100Z,38.80
2022-12-09T10:17:01.590Z,38.40
2022-12-09T10:19:36.972Z,38.60
2022-12-09T10:22:21.266Z,39.00
2022-12-09T10:24:55.623Z,38.90
2022-12-09T10:27:38.101Z,39.20
2022-12-09T10:30:16.388Z,39.40
2022-12-09T10:32:44.941Z,39.20
2022-12-09T10:35:14.599Z,38.50
2022-12-09T10:37:43.108Z,37.50
2022-12-09T10:40:11.176Z,37.20
2022-12-09T10:42:44.767Z,36.80
2022-12-09T10:45:14.476Z,36.30
2022-12-09T10:47:49.914Z,35.90
2022-12-09T10:50:37.244Z,36.60
2022-12-09T10:53:17.345Z,39.00
2022-12-09T10:55:52.068Z,42.10
2022-12-09T10:58:23.732Z,44.90
2022-12-09T11:01:11.107Z,48.20
2022-12-09T11:03:50.639Z,50.90
2022-12-09T11:06:24.690Z,53.50
2022-12-09T11:09:02.609Z,56.00
2022-12-09T11:11:39.597Z,57.80
2022-12-09T11:14:30.514Z,59.80
2022-12-09T11:17:11.160Z,62.20
2022-12-09T11:19:41.857Z,64.00
2022-12-09T11:22:21.449Z,65.30
2022-12-09T11:24:54.540Z,66.30
2022-12-09T11:27:28.171Z,66.80
2022-12-09T11:30:14.413Z,67.40
2022-12-09T11:32:56.716Z,68.40
2022-12-09T11:35:29.700Z,69.40
2022-12-09T11:38:02.946Z,70.00
2022-12-09T11:40:32.937Z,71.30
2022-12-09T11:43:02.914Z,72.10
2022-12-09T11:45:45.676Z,71.80
2022-12-09T11:48:32.016Z,72.10
2022-12-09T11:51:02.437Z,72.20
2022-12-09T11:53:34.597Z,73.60
2022-12-09T11:56:05.633Z,74.50
2022-12-09T11:58:42.191Z,75.40
2022-12-09T12:01:20.297Z,75.40
2022-12-09T12:04:01.284Z,75.60
2022-12-09T12:06:47.038Z,76.00
2022-12-09T12:09:25.042Z,76.20
2022-12-09T12:12:10.048Z,76.90
2022-12-09T12:14:42.013Z,77.40
2022-12-09T12:17:36.430Z,78.80
2022-12-09T12:20:05.710Z,80.00
2022-12-09T12:23:02.244Z,81.30
2022-12-09T12:26:06.291Z,83.00
2022-12-09T12:29:19.763Z,85.20
2022-12-09T12:32:10.237Z,89.00
2022-12-09T12:35:07.644Z,90.60
2022-12-09T12:37:56.119Z,91.40
2022-12-09T12:40:32.165Z,92.80
2022-12-09T12:43:29.953Z,94.10
2022-12-09T12:46:02.279Z,95.50
2022-12-09T12:49:01.826Z,97.20
2022-12-09T12:51:32.126Z,98.90
2022-12-09T12:54:08.857Z,99.90
2022-12-09T12:57:03.739Z,99.90
2022-12-09T12:59:33.779Z,99.90
2022-12-09T13:02:32.314Z,99.90
2022-12-09T13:05:13.444Z,99.90
2022-12-09T13:07:48.327Z,99.90
2022-12-09T13:10:19.645Z,99.90
2022-12-09T13:12:50.869Z,99.90
2022-12-09T13:15:40.321Z,99.90
2022-12-09T13:18:15.914Z,99.90
2022-12-09T13:20:51.401Z,99.90
2022-12-09T13:23:37.268Z,99.90
2022-12-09T13:26:24.651Z,99.90
2022-12-09T13:28:57.397Z,99.90
2022-12-09T13:31:30.500Z,99.90
2022-12-09T13:34:19.303Z,99.90
2022-12-09T13:36:49.448Z,99.90
2022-12-09T13:39:42.007Z,99.90
2022-12-09T13:42:27.713Z,99.90
2022-12-09T13:45:05.699Z,99.90
2022-12-09T13:47:36.794Z,99.90
2022-12-09T13:50:07.651Z,99.90
2022-12-09T13:52:52.882Z,99.90
2022-12-09T13:55:23.824Z,99.90
2022-12-09T13:58:04.662Z,99.90
2022-12-09T14:00:34.958Z,99.90
2022-12-09T14:03:23.330Z,99.90
2022-12-09T14:05:58.501Z,99.90
2022-12-09T14:08:34.396Z,99.90
2022-12-09T14:11:37.619Z,99.90
2022-12-09T14:14:28.205Z,99.90
2022-12-09T14:17:16.538Z,99.90
2022-12-09T14:20:20.456Z,99.90
2022-12-09T14:23:12.365Z,99.90
2022-12-09T14:25:50.939Z,99.90
2022-12-09T14:28:50.013Z,99.90
2022-12-09T14:32:09.477Z,99.90
2022-12-09T14:34:39.715Z,99.90
2022-12-09T14:37:19.016Z,99.90
2022-12-09T14:40:05.274Z,99.90
2022-12-09T14:42:46.235Z,99.90
2022-12-09T14:45:36.089Z,99.90
2022-12-09T14:48:10.306Z,99.90
2022-12-09T14:50:38.336Z,99.90
2022-12-09T14:53:19.111Z,99.90
2022-12-09T14:55:49.833Z,99.90
2022-12-09T14:58:20.393Z,99.90
2022-12-09T15:00:57.943Z,99.90
2022-12-09T15:03:36.935Z,99.90
2022-12-09T15:06:17.616Z,99.90
2022-12-09T15:08:45.426Z,99.90
2022-12-09T15:11:17.150Z,99.90
2022-12-09T15:13:47.367Z,99.90
2022-12-09T15:16:26.123Z,99.90
2022-12-09T15:18:56.092Z,99.90
2022-12-09T15:21:31.549Z,99.90
2022-12-09T15:24:00.780Z,99.90
2022-12-09T15:26:31.340Z,99.90
2022-12-09T15:28:59.466Z,99.90
2022-12-09T15:31:29.611Z,99.90
2022-12-09T15:34:00.406Z,99.90
2022-12-09T15:36:40.287Z,99.90
2022-12-09T15:39:13.430Z,99.90
2022-12-09T15:41:50.188Z,99.90
2022-12-09T15:44:20.228Z,99.90
2022-12-09T15:46:53.010Z,99.90
2022-12-09T15:49:27.117Z,99.90
2022-12-09T15:51:56.286Z,99.90
2022-12-09T15:54:29.675Z,99.90
2022-12-09T15:56:58.938Z,99.90
2022-12-09T15:59:40.094Z,99.90
2022-12-09T16:02:09.923Z,99.90
2022-12-09T16:04:43.285Z,99.90
2022-12-09T16:07:16.232Z,99.90
2022-12-09T16:10:00.056Z,99.90
2022-12-09T16:12:29.847Z,99.90
2022-12-09T16:14:57.495Z,99.90
2022-12-09T16:17:29.189Z,99.90
2022-12-09T16:19:59.403Z,99.90
2022-12-09T16:22:33.087Z,99.90
2022-12-09T16:25:17.381Z,99.90
2022-12-09T16:27:47.604Z,99.90
2022-12-09T16:30:22.443Z,99.90
2022-12-09T16:32:55.874Z,99.90
2022-12-09T16:35:29.159Z,99.90
2022-12-09T16:37:56.624Z,99.90
2022-12-09T16:40:24.106Z,99.90
2022-12-09T16:43:15.577Z,99.90
2022-12-09T16:45:44.440Z,99.90
2022-12-09T16:48:12.232Z,99.90
2022-12-09T16:50:48.827Z,99.90
2022-12-09T16:53:22.729Z,99.90
2022-12-09T16:55:55.651Z,99.90
2022-12-09T16:58:23.411Z,99.90
2022-12-09T17:00:51.107Z,99.90
2022-12-09T17:03:32.139Z,99.90
2022-12-09T17:05:59.688Z,99.90
2022-12-09T17:08:26.861Z,99.90
2022-12-09T17:10:56.529Z,99.90
2022-12-09T17:13:23.930Z,99.90
2022-12-09T17:15:52.540Z,99.90
2022-12-09T17:18:19.924Z,99.90
2022-12-09T17:20:47.578Z,99.90
2022-12-09T17:23:14.774Z,99.90
2022-12-09T17:25:42.203Z,99.90
2022-12-09T17:28:09.388Z,99.90
2022-12-09T17:30:38.460Z,99.90
2022-12-09T17:33:06.596Z,99.90
2022-12-09T17:35:38.443Z,99.90
2022-12-09T17:38:05.565Z,99.90
2022-12-09T17:40:37.531Z,99.90
2022-12-09T17:43:07.474Z,99.90
2022-12-09T17:45:40.353Z,99.90
2022-12-09T17:48:11.436Z,99.90
2022-12-09T17:50:39.757Z,99.90
2022-12-09T17:53:06.944Z,99.90
2022-12-09T17:55:34.526Z,99.90
2022-12-09T17:58:01.642Z,99.90
2022-12-09T18:00:31.780Z,99.90
2022-12-09T18:03:01.289Z,99.90
2022-12-09T18:05:28.928Z,99.90
2022-12-09T18:07:56.354Z,99.90
2022-12-09T18:10:23.987Z,99.90
2022-12-09T18:12:53.495Z,99.90
2022-12-09T18:15:20.913Z,99.90
2022-12-09T18:17:50.661Z,99.90
2022-12-09T18:20:20.589Z,99.90
2022-12-09T18:22:47.652Z,99.90
2022-12-09T18:25:15.265Z,99.90
2022-12-09T18:27:44.886Z,99.90
2022-12-09T18:30:12.664Z,99.90
2022-12-09T18:32:40.122Z,99.90
2022-12-09T18:35:07.718Z,99.90
2022-12-09T18:37:34.828Z,99.90
2022-12-09T18:40:02.298Z,99.90
2022-12-09T18:42:31.920Z,99.90
2022-12-09T18:44:59.322Z,99.90
2022-12-09T18:47:26.466Z,99.90
2022-12-09T18:49:53.779Z,99.90
2022-12-09T18:52:20.931Z,99.90
2022-12-09T18:54:55.898Z,99.90
2022-12-09T18:57:30.561Z,99.90
2022-12-09T19:00:03.813Z,99.90
2022-12-09T19:02:33.922Z,99.90
2022-12-09T19:05:01.808Z,99.90
2022-12-09T19:07:32.517Z,99.90
2022-12-09T19:10:00.070Z,99.90
2022-12-09T19:12:46.497Z,99.90
2022-12-09T19:15:14.593Z,99.90
2022-12-09T19:17:41.789Z,99.90
2022-12-09T19:20:10.033Z,99.90
2022-12-09T19:22:37.256Z,99.90
2022-12-09T19:25:05.636Z,99.90
2022-12-09T19:27:32.767Z,99.90
2022-12-09T19:30:00.386Z,99.90
2022-12-09T19:35:09.366Z,99.90
2022-12-09T19:37:38.793Z,99.90
2022-12-09T19:40:07.244Z,99.90
2022-12-09T19:42:34.608Z,99.90
2022-12-09T19:45:04.410Z,99.90
2022-12-09T19:47:33.728Z,99.90
2022-12-09T19:50:02.655Z,99.90
2022-12-09T19:52:34.392Z,99.90
2022-12-09T19:55:10.525Z,99.90
2022-12-09T19:57:37.895Z,99.90
2022-12-09T20:00:06.094Z,99.90
2022-12-09T20:02:37.908Z,99.90
2022-12-09T20:05:06.140Z,99.90
2022-12-09T20:07:33.320Z,99.90
2022-12-09T20:10:08.576Z,99.90
2022-12-09T20:12:36.412Z,99.90
2022-12-09T20:15:04.799Z,99.90
2022-12-09T20:17:32.299Z,99.90
2022-12-09T20:20:02.239Z,99.90
2022-12-09T20:22:31.507Z,99.90
2022-12-09T20:24:59.064Z,99.90
2022-12-09T20:27:26.598Z,99.90
2022-12-09T20:29:54.120Z,99.90
2022-12-09T20:32:21.489Z,99.90
2022-12-09T20:34:49.198Z,99.90
2022-12-09T20:37:16.401Z,99.90
2022-12-09T20:39:45.368Z,99.90
2022-12-09T20:42:12.562Z,99.90
2022-12-09T20:44:41.150Z,99.90
2022-12-09T20:47:08.450Z,99.90
2022-12-09T20:49:36.153Z,99.90
2022-12-09T20:52:03.350Z,99.90
2022-12-09T20:54:31.441Z,99.90
2022-12-09T20:56:58.922Z,99.90
2022-12-09T20:59:26.375Z,99.90
2022-12-09T21:01:53.607Z,99.90
2022-12-09T21:04:21.808Z,99.90
2022-12-09T21:06:49.259Z,99.90
2022-12-09T21:09:18.782Z,99.90
2022-12-09T21:11:46.666Z,99.90
2022-12-09T21:14:15.015Z,99.90
2022-12-09T21:16:43.558Z,99.90
2022-12-09T21:19:17.294Z,99.90
2022-12-09T21:21:46.047Z,99.90
2022-12-09T21:24:14.930Z,99.90
2022-12-09T21:26:44.307Z,99.90
2022-12-09T21:29:12.353Z,99.90
2022-12-09T21:31:41.179Z,99.90
2022-12-09T21:34:09.893Z,99.90
2022-12-09T21:36:41.077Z,99.90
2022-12-09T21:39:13.183Z,99.90
2022-12-09T21:41:41.500Z,99.90
2022-12-09T21:44:13.076Z,99.90
2022-12-09T21:46:40.340Z,99.90
2022-12-09T21:49:07.784Z,99.90
2022-12-09T21:51:35.502Z,99.90
2022-12-09T21:54:03.598Z,99.90
2022-12-09T21:56:33.760Z,99.90
2022-12-09T21:59:02.275Z,99.90
2022-12-09T22:01:35.891Z,99.90
2022-12-09T22:04:04.266Z,99.90
2022-12-09T22:06:31.822Z,99.90
2022-12-09T22:09:00.648Z,99.90
2022-12-09T22:11:30.814Z,99.90
2022-12-09T22:13:59.790Z,99.90
2022-12-09T22:16:34.205Z,99.90
2022-12-09T22:19:03.324Z,99.90
2022-12-09T22:21:31.786Z,99.90
2022-12-09T22:24:02.964Z,99.90
2022-12-09T22:26:32.661Z,99.90
2022-12-09T22:29:04.894Z,99.90
2022-12-09T22:31:36.397Z,99.90
2022-12-09T22:34:06.905Z,99.90
2022-12-09T22:36:34.295Z,99.90
2022-12-09T22:39:05.861Z,99.90
2022-12-09T22:41:41.353Z,99.90
2022-12-09T22:44:10.440Z,99.90
2022-12-09T22:46:40.079Z,99.90
2022-12-09T22:49:07.607Z,99.90
2022-12-09T22:51:36.540Z,99.90
2022-12-09T22:54:10.284Z,99.90
2022-12-09T22:56:39.366Z,99.90
2022-12-09T22:59:09.352Z,99.90
2022-12-09T23:01:37.239Z,99.90
2022-12-09T23:04:06.495Z,99.90
2022-12-09T23:06:36.474Z,99.90
2022-12-09T23:09:05.121Z,99.90
2022-12-09T23:11:32.298Z,99.90
2022-12-09T23:14:00.456Z,99.90
2022-12-09T23:16:30.378Z,99.90
2022-12-09T23:18:59.090Z,99.90
2022-12-09T23:21:31.128Z,99.90
2022-12-09T23:24:01.011Z,99.90
2022-12-09T23:26:30.752Z,99.90
2022-12-09T23:29:00.986Z,99.90
2022-12-09T23:31:32.012Z,99.90
2022-12-09T23:34:00.442Z,99.90
2022-12-09T23:36:31.012Z,99.90
2022-12-09T23:38:59.741Z,99.90
2022-12-09T23:41:32.038Z,99.90
2022-12-09T23:43:59.535Z,99.90
2022-12-09T23:46:28.344Z,99.90
2022-12-09T23:48:56.355Z,99.90
2022-12-09T23:51:29.971Z,99.90
2022-12-09T23:54:01.969Z,99.90
2022-12-09T23:56:31.755Z,99.90
2022-12-09T23:59:02.444Z,99.90
